sensor_id;sensor_type;location;lat;lon;timestamp;P1;durP1;ratioP1;P2;durP2;ratioP2
78368;SDS011;71113;43.092;-89.268;2024-03-06T00:02:24;1.25;;;0.85;;
78368;SDS011;71113;43.092;-89.268;2024-03-06T00:04:50;0.68;;;0.55;;
78368;SDS011;71113;43.092;-89.268;2024-03-06T00:07:16;1.30;;;0.80;;
78368;SDS011;71113;43.092;-89.268;2024-03-06T00:09:42;0.70;;;0.60;;
78368;SDS011;71113;43.092;-89.268;2024-03-06T00:12:08;0.68;;;0.68;;
78368;SDS011;71113;43.092;-89.268;2024-03-06T00:14:35;0.52;;;0.52;;
78368;SDS011;71113;43.092;-89.268;2024-03-06T00:17:01;0.93;;;0.70;;
78368;SDS011;71113;43.092;-89.268;2024-03-06T00:19:32;1.02;;;0.80;;
78368;SDS011;71113;43.092;-89.268;2024-03-06T00:21:58;0.88;;;0.70;;
78368;SDS011;71113;43.092;-89.268;2024-03-06T00:24:24;0.63;;;0.60;;
78368;SDS011;71113;43.092;-89.268;2024-03-06T00:26:50;1.50;;;0.82;;
78368;SDS011;71113;43.092;-89.268;2024-03-06T00:29:16;1.25;;;0.80;;
78368;SDS011;71113;43.092;-89.268;2024-03-06T00:31:43;2.20;;;0.85;;
78368;SDS011;71113;43.092;-89.268;2024-03-06T00:34:10;1.02;;;0.80;;
78368;SDS011;71113;43.092;-89.268;2024-03-06T00:36:37;2.25;;;0.90;;
78368;SDS011;71113;43.092;-89.268;2024-03-06T00:39:03;0.82;;;0.57;;
78368;SDS011;71113;43.092;-89.268;2024-03-06T00:41:30;1.13;;;0.80;;
78368;SDS011;71113;43.092;-89.268;2024-03-06T00:43:56;1.35;;;0.98;;
78368;SDS011;71113;43.092;-89.268;2024-03-06T00:46:22;0.73;;;0.63;;
78368;SDS011;71113;43.092;-89.268;2024-03-06T00:48:48;1.40;;;0.80;;
78368;SDS011;71113;43.092;-89.268;2024-03-06T00:51:14;1.05;;;0.70;;
78368;SDS011;71113;43.092;-89.268;2024-03-06T00:53:40;0.63;;;0.50;;
78368;SDS011;71113;43.092;-89.268;2024-03-06T00:56:06;2.03;;;0.75;;
78368;SDS011;71113;43.092;-89.268;2024-03-06T00:58:33;0.90;;;0.60;;
78368;SDS011;71113;43.092;-89.268;2024-03-06T01:00:58;1.17;;;0.70;;
78368;SDS011;71113;43.092;-89.268;2024-03-06T01:03:24;1.38;;;0.90;;
78368;SDS011;71113;43.092;-89.268;2024-03-06T01:05:51;0.70;;;0.57;;
78368;SDS011;71113;43.092;-89.268;2024-03-06T01:08:23;1.05;;;0.70;;
78368;SDS011;71113;43.092;-89.268;2024-03-06T01:10:53;1.45;;;0.80;;
78368;SDS011;71113;43.092;-89.268;2024-03-06T01:13:19;1.50;;;0.85;;
78368;SDS011;71113;43.092;-89.268;2024-03-06T01:15:46;1.15;;;0.65;;
78368;SDS011;71113;43.092;-89.268;2024-03-06T01:18:12;1.52;;;0.80;;
78368;SDS011;71113;43.092;-89.268;2024-03-06T01:20:38;1.00;;;0.70;;
78368;SDS011;71113;43.092;-89.268;2024-03-06T01:23:04;0.75;;;0.50;;
78368;SDS011;71113;43.092;-89.268;2024-03-06T01:25:31;0.93;;;0.60;;
78368;SDS011;71113;43.092;-89.268;2024-03-06T01:28:17;0.75;;;0.50;;
78368;SDS011;71113;43.092;-89.268;2024-03-06T01:30:43;1.67;;;0.82;;
78368;SDS011;71113;43.092;-89.268;2024-03-06T01:33:09;1.00;;;0.70;;
78368;SDS011;71113;43.092;-89.268;2024-03-06T01:35:35;1.95;;;0.82;;
78368;SDS011;71113;43.092;-89.268;2024-03-06T01:38:01;0.98;;;0.65;;
78368;SDS011;71113;43.092;-89.268;2024-03-06T01:40:27;52.63;;;27.48;;
78368;SDS011;71113;43.092;-89.268;2024-03-06T01:42:54;321.15;;;126.28;;
78368;SDS011;71113;43.092;-89.268;2024-03-06T01:45:21;346.90;;;118.40;;
78368;SDS011;71113;43.092;-89.268;2024-03-06T01:48:07;228.02;;;85.85;;
78368;SDS011;71113;43.092;-89.268;2024-03-06T01:50:33;273.98;;;99.55;;
78368;SDS011;71113;43.092;-89.268;2024-03-06T01:53:00;266.85;;;96.47;;
78368;SDS011;71113;43.092;-89.268;2024-03-06T01:55:27;243.68;;;91.15;;
78368;SDS011;71113;43.092;-89.268;2024-03-06T01:57:53;268.17;;;91.00;;
78368;SDS011;71113;43.092;-89.268;2024-03-06T02:00:19;232.45;;;85.90;;
78368;SDS011;71113;43.092;-89.268;2024-03-06T02:02:46;237.55;;;84.25;;
78368;SDS011;71113;43.092;-89.268;2024-03-06T02:05:12;230.05;;;81.20;;
78368;SDS011;71113;43.092;-89.268;2024-03-06T02:07:38;209.60;;;80.57;;
78368;SDS011;71113;43.092;-89.268;2024-03-06T02:10:07;211.63;;;77.43;;
78368;SDS011;71113;43.092;-89.268;2024-03-06T02:12:35;270.20;;;82.63;;
78368;SDS011;71113;43.092;-89.268;2024-03-06T02:15:03;214.98;;;71.97;;
78368;SDS011;71113;43.092;-89.268;2024-03-06T02:17:29;222.55;;;74.78;;
78368;SDS011;71113;43.092;-89.268;2024-03-06T02:19:56;234.55;;;75.63;;
78368;SDS011;71113;43.092;-89.268;2024-03-06T02:22:23;210.57;;;69.40;;
78368;SDS011;71113;43.092;-89.268;2024-03-06T02:24:50;217.68;;;69.65;;
78368;SDS011;71113;43.092;-89.268;2024-03-06T02:27:16;189.63;;;62.55;;
78368;SDS011;71113;43.092;-89.268;2024-03-06T02:29:42;184.70;;;60.70;;
78368;SDS011;71113;43.092;-89.268;2024-03-06T02:32:09;161.95;;;53.45;;
78368;SDS011;71113;43.092;-89.268;2024-03-06T02:34:37;148.80;;;49.33;;
78368;SDS011;71113;43.092;-89.268;2024-03-06T02:37:03;145.27;;;50.17;;
78368;SDS011;71113;43.092;-89.268;2024-03-06T02:39:29;142.00;;;46.25;;
78368;SDS011;71113;43.092;-89.268;2024-03-06T02:41:55;137.10;;;46.67;;
78368;SDS011;71113;43.092;-89.268;2024-03-06T02:44:22;128.98;;;44.00;;
78368;SDS011;71113;43.092;-89.268;2024-03-06T02:46:48;135.77;;;45.90;;
78368;SDS011;71113;43.092;-89.268;2024-03-06T02:49:15;134.95;;;46.20;;
78368;SDS011;71113;43.092;-89.268;2024-03-06T02:51:42;126.47;;;45.08;;
78368;SDS011;71113;43.092;-89.268;2024-03-06T02:54:08;124.88;;;42.97;;
78368;SDS011;71113;43.092;-89.268;2024-03-06T02:56:34;120.20;;;42.53;;
78368;SDS011;71113;43.092;-89.268;2024-03-06T02:59:00;124.38;;;39.97;;
78368;SDS011;71113;43.092;-89.268;2024-03-06T03:01:28;116.80;;;40.65;;
78368;SDS011;71113;43.092;-89.268;2024-03-06T03:03:55;109.32;;;38.30;;
78368;SDS011;71113;43.092;-89.268;2024-03-06T03:06:21;101.63;;;36.60;;
78368;SDS011;71113;43.092;-89.268;2024-03-06T03:08:49;106.00;;;36.33;;
78368;SDS011;71113;43.092;-89.268;2024-03-06T03:11:15;115.18;;;39.65;;
78368;SDS011;71113;43.092;-89.268;2024-03-06T03:13:41;104.25;;;35.10;;
78368;SDS011;71113;43.092;-89.268;2024-03-06T03:16:15;100.50;;;34.15;;
78368;SDS011;71113;43.092;-89.268;2024-03-06T03:18:43;94.35;;;32.72;;
78368;SDS011;71113;43.092;-89.268;2024-03-06T03:21:09;100.13;;;34.38;;
78368;SDS011;71113;43.092;-89.268;2024-03-06T03:23:38;98.60;;;33.30;;
78368;SDS011;71113;43.092;-89.268;2024-03-06T03:26:07;94.60;;;33.30;;
78368;SDS011;71113;43.092;-89.268;2024-03-06T03:28:37;89.03;;;30.95;;
78368;SDS011;71113;43.092;-89.268;2024-03-06T03:31:06;90.22;;;32.80;;
78368;SDS011;71113;43.092;-89.268;2024-03-06T03:33:34;92.05;;;32.08;;
78368;SDS011;71113;43.092;-89.268;2024-03-06T03:36:04;79.00;;;26.45;;
78368;SDS011;71113;43.092;-89.268;2024-03-06T03:38:32;80.55;;;26.27;;
78368;SDS011;71113;43.092;-89.268;2024-03-06T03:41:01;71.68;;;26.02;;
78368;SDS011;71113;43.092;-89.268;2024-03-06T03:43:29;66.03;;;23.52;;
78368;SDS011;71113;43.092;-89.268;2024-03-06T03:45:56;65.63;;;21.63;;
78368;SDS011;71113;43.092;-89.268;2024-03-06T03:48:22;66.43;;;21.42;;
78368;SDS011;71113;43.092;-89.268;2024-03-06T03:50:48;56.97;;;19.33;;
78368;SDS011;71113;43.092;-89.268;2024-03-06T03:53:14;46.08;;;16.85;;
78368;SDS011;71113;43.092;-89.268;2024-03-06T03:55:41;46.55;;;16.63;;
78368;SDS011;71113;43.092;-89.268;2024-03-06T03:58:07;47.63;;;16.38;;
78368;SDS011;71113;43.092;-89.268;2024-03-06T04:00:33;43.30;;;14.90;;
78368;SDS011;71113;43.092;-89.268;2024-03-06T04:02:59;39.38;;;13.38;;
78368;SDS011;71113;43.092;-89.268;2024-03-06T04:05:25;38.55;;;14.00;;
78368;SDS011;71113;43.092;-89.268;2024-03-06T04:07:51;39.78;;;13.73;;
78368;SDS011;71113;43.092;-89.268;2024-03-06T04:10:17;40.20;;;13.82;;
78368;SDS011;71113;43.092;-89.268;2024-03-06T04:12:43;41.85;;;14.38;;
78368;SDS011;71113;43.092;-89.268;2024-03-06T04:15:09;37.67;;;14.15;;
78368;SDS011;71113;43.092;-89.268;2024-03-06T04:17:56;39.92;;;14.02;;
78368;SDS011;71113;43.092;-89.268;2024-03-06T04:20:40;32.67;;;12.95;;
78368;SDS011;71113;43.092;-89.268;2024-03-06T04:23:06;35.70;;;13.60;;
78368;SDS011;71113;43.092;-89.268;2024-03-06T04:25:32;40.25;;;13.52;;
78368;SDS011;71113;43.092;-89.268;2024-03-06T04:27:58;34.42;;;12.30;;
78368;SDS011;71113;43.092;-89.268;2024-03-06T04:30:24;32.53;;;12.57;;
78368;SDS011;71113;43.092;-89.268;2024-03-06T04:32:50;34.22;;;12.50;;
78368;SDS011;71113;43.092;-89.268;2024-03-06T04:35:16;33.75;;;12.40;;
78368;SDS011;71113;43.092;-89.268;2024-03-06T04:37:42;34.55;;;12.02;;
78368;SDS011;71113;43.092;-89.268;2024-03-06T04:40:09;33.95;;;11.98;;
78368;SDS011;71113;43.092;-89.268;2024-03-06T04:42:35;35.20;;;12.30;;
78368;SDS011;71113;43.092;-89.268;2024-03-06T04:45:19;33.50;;;11.65;;
78368;SDS011;71113;43.092;-89.268;2024-03-06T04:47:45;32.05;;;11.45;;
78368;SDS011;71113;43.092;-89.268;2024-03-06T04:50:11;31.17;;;11.57;;
78368;SDS011;71113;43.092;-89.268;2024-03-06T04:52:39;30.70;;;10.60;;
78368;SDS011;71113;43.092;-89.268;2024-03-06T04:55:06;35.30;;;11.68;;
78368;SDS011;71113;43.092;-89.268;2024-03-06T04:57:36;26.15;;;9.00;;
78368;SDS011;71113;43.092;-89.268;2024-03-06T05:00:02;28.90;;;9.50;;
78368;SDS011;71113;43.092;-89.268;2024-03-06T05:02:32;31.05;;;10.00;;
78368;SDS011;71113;43.092;-89.268;2024-03-06T05:05:02;27.05;;;9.75;;
78368;SDS011;71113;43.092;-89.268;2024-03-06T05:07:29;28.67;;;9.40;;
78368;SDS011;71113;43.092;-89.268;2024-03-06T05:09:57;28.75;;;10.13;;
78368;SDS011;71113;43.092;-89.268;2024-03-06T05:12:26;25.98;;;9.75;;
78368;SDS011;71113;43.092;-89.268;2024-03-06T05:14:53;25.38;;;10.05;;
78368;SDS011;71113;43.092;-89.268;2024-03-06T05:17:20;27.73;;;8.90;;
78368;SDS011;71113;43.092;-89.268;2024-03-06T05:19:46;23.35;;;9.48;;
78368;SDS011;71113;43.092;-89.268;2024-03-06T05:22:13;25.33;;;9.30;;
78368;SDS011;71113;43.092;-89.268;2024-03-06T05:24:39;24.75;;;8.60;;
78368;SDS011;71113;43.092;-89.268;2024-03-06T05:27:06;20.42;;;8.00;;
78368;SDS011;71113;43.092;-89.268;2024-03-06T05:29:32;24.90;;;9.27;;
78368;SDS011;71113;43.092;-89.268;2024-03-06T05:31:58;21.13;;;8.18;;
78368;SDS011;71113;43.092;-89.268;2024-03-06T05:34:24;23.65;;;9.27;;
78368;SDS011;71113;43.092;-89.268;2024-03-06T05:36:50;22.08;;;7.75;;
78368;SDS011;71113;43.092;-89.268;2024-03-06T05:39:16;19.02;;;6.45;;
78368;SDS011;71113;43.092;-89.268;2024-03-06T05:41:43;20.15;;;7.15;;
78368;SDS011;71113;43.092;-89.268;2024-03-06T05:44:09;18.20;;;7.30;;
78368;SDS011;71113;43.092;-89.268;2024-03-06T05:46:35;18.63;;;7.28;;
78368;SDS011;71113;43.092;-89.268;2024-03-06T05:49:01;18.30;;;6.07;;
78368;SDS011;71113;43.092;-89.268;2024-03-06T05:51:28;19.30;;;7.18;;
78368;SDS011;71113;43.092;-89.268;2024-03-06T05:53:55;19.23;;;7.63;;
78368;SDS011;71113;43.092;-89.268;2024-03-06T05:56:21;17.92;;;6.47;;
78368;SDS011;71113;43.092;-89.268;2024-03-06T05:58:47;17.45;;;6.68;;
78368;SDS011;71113;43.092;-89.268;2024-03-06T06:01:17;16.90;;;6.53;;
78368;SDS011;71113;43.092;-89.268;2024-03-06T06:03:49;18.95;;;6.90;;
78368;SDS011;71113;43.092;-89.268;2024-03-06T06:06:16;17.00;;;6.25;;
78368;SDS011;71113;43.092;-89.268;2024-03-06T06:08:42;18.30;;;6.57;;
78368;SDS011;71113;43.092;-89.268;2024-03-06T06:11:09;16.45;;;6.15;;
78368;SDS011;71113;43.092;-89.268;2024-03-06T06:13:36;18.15;;;5.82;;
78368;SDS011;71113;43.092;-89.268;2024-03-06T06:16:02;16.92;;;6.30;;
78368;SDS011;71113;43.092;-89.268;2024-03-06T06:18:28;16.27;;;6.10;;
78368;SDS011;71113;43.092;-89.268;2024-03-06T06:20:54;14.57;;;5.65;;
78368;SDS011;71113;43.092;-89.268;2024-03-06T06:23:20;17.55;;;6.28;;
78368;SDS011;71113;43.092;-89.268;2024-03-06T06:25:46;18.02;;;6.35;;
78368;SDS011;71113;43.092;-89.268;2024-03-06T06:28:12;13.52;;;5.63;;
78368;SDS011;71113;43.092;-89.268;2024-03-06T06:30:38;14.63;;;5.40;;
78368;SDS011;71113;43.092;-89.268;2024-03-06T06:33:04;12.35;;;5.10;;
78368;SDS011;71113;43.092;-89.268;2024-03-06T06:35:30;14.32;;;5.43;;
78368;SDS011;71113;43.092;-89.268;2024-03-06T06:37:56;12.88;;;4.32;;
78368;SDS011;71113;43.092;-89.268;2024-03-06T06:40:22;10.57;;;4.07;;
78368;SDS011;71113;43.092;-89.268;2024-03-06T06:42:48;9.93;;;3.80;;
78368;SDS011;71113;43.092;-89.268;2024-03-06T06:45:15;11.70;;;4.53;;
78368;SDS011;71113;43.092;-89.268;2024-03-06T06:47:42;11.98;;;4.60;;
78368;SDS011;71113;43.092;-89.268;2024-03-06T06:50:08;11.65;;;4.05;;
78368;SDS011;71113;43.092;-89.268;2024-03-06T06:52:34;11.60;;;4.80;;
78368;SDS011;71113;43.092;-89.268;2024-03-06T06:55:01;10.63;;;4.35;;
78368;SDS011;71113;43.092;-89.268;2024-03-06T06:57:27;10.90;;;4.82;;
78368;SDS011;71113;43.092;-89.268;2024-03-06T06:59:53;10.52;;;3.90;;
78368;SDS011;71113;43.092;-89.268;2024-03-06T07:02:19;10.70;;;4.43;;
78368;SDS011;71113;43.092;-89.268;2024-03-06T07:04:45;10.52;;;4.30;;
78368;SDS011;71113;43.092;-89.268;2024-03-06T07:07:11;11.38;;;3.90;;
78368;SDS011;71113;43.092;-89.268;2024-03-06T07:09:37;10.20;;;3.92;;
78368;SDS011;71113;43.092;-89.268;2024-03-06T07:12:03;10.60;;;4.10;;
78368;SDS011;71113;43.092;-89.268;2024-03-06T07:14:29;10.10;;;4.32;;
78368;SDS011;71113;43.092;-89.268;2024-03-06T07:16:55;9.20;;;3.88;;
78368;SDS011;71113;43.092;-89.268;2024-03-06T07:19:21;10.10;;;3.58;;
78368;SDS011;71113;43.092;-89.268;2024-03-06T07:21:47;9.60;;;3.70;;
78368;SDS011;71113;43.092;-89.268;2024-03-06T07:24:13;9.65;;;3.63;;
78368;SDS011;71113;43.092;-89.268;2024-03-06T07:26:39;9.55;;;3.75;;
78368;SDS011;71113;43.092;-89.268;2024-03-06T07:29:05;7.75;;;3.20;;
78368;SDS011;71113;43.092;-89.268;2024-03-06T07:31:38;8.43;;;3.38;;
78368;SDS011;71113;43.092;-89.268;2024-03-06T07:34:04;8.60;;;3.13;;
78368;SDS011;71113;43.092;-89.268;2024-03-06T07:36:33;7.28;;;2.92;;
78368;SDS011;71113;43.092;-89.268;2024-03-06T07:39:00;6.35;;;2.67;;
78368;SDS011;71113;43.092;-89.268;2024-03-06T07:41:27;8.13;;;3.10;;
78368;SDS011;71113;43.092;-89.268;2024-03-06T07:43:53;7.75;;;2.95;;
78368;SDS011;71113;43.092;-89.268;2024-03-06T07:46:39;8.23;;;3.30;;
78368;SDS011;71113;43.092;-89.268;2024-03-06T07:49:05;8.35;;;3.05;;
78368;SDS011;71113;43.092;-89.268;2024-03-06T07:51:31;6.88;;;2.90;;
78368;SDS011;71113;43.092;-89.268;2024-03-06T07:53:58;7.10;;;2.80;;
78368;SDS011;71113;43.092;-89.268;2024-03-06T07:56:24;8.63;;;2.92;;
78368;SDS011;71113;43.092;-89.268;2024-03-06T07:58:51;6.03;;;2.88;;
78368;SDS011;71113;43.092;-89.268;2024-03-06T08:01:17;6.18;;;2.50;;
78368;SDS011;71113;43.092;-89.268;2024-03-06T08:03:43;5.75;;;2.50;;
78368;SDS011;71113;43.092;-89.268;2024-03-06T08:06:09;6.53;;;2.50;;
78368;SDS011;71113;43.092;-89.268;2024-03-06T08:08:35;6.65;;;3.00;;
78368;SDS011;71113;43.092;-89.268;2024-03-06T08:11:02;6.32;;;2.45;;
78368;SDS011;71113;43.092;-89.268;2024-03-06T08:13:28;5.43;;;2.35;;
78368;SDS011;71113;43.092;-89.268;2024-03-06T08:15:55;4.97;;;2.20;;
78368;SDS011;71113;43.092;-89.268;2024-03-06T08:18:20;5.35;;;2.35;;
78368;SDS011;71113;43.092;-89.268;2024-03-06T08:20:46;5.90;;;2.50;;
78368;SDS011;71113;43.092;-89.268;2024-03-06T08:23:12;5.82;;;2.50;;
78368;SDS011;71113;43.092;-89.268;2024-03-06T08:25:38;5.15;;;2.10;;
78368;SDS011;71113;43.092;-89.268;2024-03-06T08:28:04;6.55;;;2.10;;
78368;SDS011;71113;43.092;-89.268;2024-03-06T08:30:33;5.63;;;2.25;;
78368;SDS011;71113;43.092;-89.268;2024-03-06T08:33:19;5.13;;;2.35;;
78368;SDS011;71113;43.092;-89.268;2024-03-06T08:35:46;4.68;;;1.90;;
78368;SDS011;71113;43.092;-89.268;2024-03-06T08:38:12;6.10;;;2.17;;
78368;SDS011;71113;43.092;-89.268;2024-03-06T08:40:38;5.68;;;2.00;;
78368;SDS011;71113;43.092;-89.268;2024-03-06T08:43:04;5.15;;;2.03;;
78368;SDS011;71113;43.092;-89.268;2024-03-06T08:45:30;4.45;;;1.80;;
78368;SDS011;71113;43.092;-89.268;2024-03-06T08:47:56;4.72;;;2.30;;
78368;SDS011;71113;43.092;-89.268;2024-03-06T08:50:22;5.38;;;2.17;;
78368;SDS011;71113;43.092;-89.268;2024-03-06T08:52:47;6.22;;;2.00;;
78368;SDS011;71113;43.092;-89.268;2024-03-06T08:55:13;4.65;;;2.00;;
78368;SDS011;71113;43.092;-89.268;2024-03-06T08:57:39;5.97;;;2.05;;
78368;SDS011;71113;43.092;-89.268;2024-03-06T09:00:06;3.92;;;1.70;;
78368;SDS011;71113;43.092;-89.268;2024-03-06T09:02:36;4.15;;;1.70;;
78368;SDS011;71113;43.092;-89.268;2024-03-06T09:05:06;5.40;;;1.80;;
78368;SDS011;71113;43.092;-89.268;2024-03-06T09:10:04;4.00;;;2.10;;
78368;SDS011;71113;43.092;-89.268;2024-03-06T09:12:31;4.10;;;1.70;;
78368;SDS011;71113;43.092;-89.268;2024-03-06T09:14:57;3.78;;;1.70;;
78368;SDS011;71113;43.092;-89.268;2024-03-06T09:17:22;3.65;;;1.63;;
78368;SDS011;71113;43.092;-89.268;2024-03-06T09:19:48;3.25;;;1.60;;
78368;SDS011;71113;43.092;-89.268;2024-03-06T09:22:14;2.92;;;1.45;;
78368;SDS011;71113;43.092;-89.268;2024-03-06T09:24:40;3.05;;;1.55;;
78368;SDS011;71113;43.092;-89.268;2024-03-06T09:27:06;3.22;;;1.50;;
78368;SDS011;71113;43.092;-89.268;2024-03-06T09:29:32;4.22;;;1.60;;
78368;SDS011;71113;43.092;-89.268;2024-03-06T09:31:58;4.45;;;1.70;;
78368;SDS011;71113;43.092;-89.268;2024-03-06T09:34:24;3.80;;;1.60;;
78368;SDS011;71113;43.092;-89.268;2024-03-06T09:36:50;4.07;;;1.63;;
78368;SDS011;71113;43.092;-89.268;2024-03-06T09:39:16;3.08;;;1.42;;
78368;SDS011;71113;43.092;-89.268;2024-03-06T09:41:48;3.30;;;1.67;;
78368;SDS011;71113;43.092;-89.268;2024-03-06T09:44:17;3.65;;;1.20;;
78368;SDS011;71113;43.092;-89.268;2024-03-06T09:46:46;3.13;;;1.40;;
78368;SDS011;71113;43.092;-89.268;2024-03-06T09:49:14;3.53;;;1.50;;
78368;SDS011;71113;43.092;-89.268;2024-03-06T09:51:46;4.00;;;1.75;;
78368;SDS011;71113;43.092;-89.268;2024-03-06T09:54:15;2.97;;;1.40;;
78368;SDS011;71113;43.092;-89.268;2024-03-06T09:56:43;4.13;;;1.65;;
78368;SDS011;71113;43.092;-89.268;2024-03-06T09:59:10;4.55;;;1.60;;
78368;SDS011;71113;43.092;-89.268;2024-03-06T10:01:41;3.58;;;1.42;;
78368;SDS011;71113;43.092;-89.268;2024-03-06T10:04:18;3.50;;;1.40;;
78368;SDS011;71113;43.092;-89.268;2024-03-06T10:06:48;3.10;;;1.63;;
78368;SDS011;71113;43.092;-89.268;2024-03-06T10:09:18;3.88;;;1.40;;
78368;SDS011;71113;43.092;-89.268;2024-03-06T10:11:44;3.15;;;1.10;;
78368;SDS011;71113;43.092;-89.268;2024-03-06T10:14:11;2.40;;;1.20;;
78368;SDS011;71113;43.092;-89.268;2024-03-06T10:16:38;2.58;;;1.48;;
78368;SDS011;71113;43.092;-89.268;2024-03-06T10:19:17;2.25;;;1.13;;
78368;SDS011;71113;43.092;-89.268;2024-03-06T10:21:47;3.00;;;1.30;;
78368;SDS011;71113;43.092;-89.268;2024-03-06T10:24:20;2.25;;;1.17;;
78368;SDS011;71113;43.092;-89.268;2024-03-06T10:26:48;2.83;;;1.27;;
78368;SDS011;71113;43.092;-89.268;2024-03-06T10:29:16;2.42;;;1.13;;
78368;SDS011;71113;43.092;-89.268;2024-03-06T10:32:01;2.67;;;1.30;;
78368;SDS011;71113;43.092;-89.268;2024-03-06T10:34:28;2.25;;;1.20;;
78368;SDS011;71113;43.092;-89.268;2024-03-06T10:37:01;2.25;;;1.15;;
78368;SDS011;71113;43.092;-89.268;2024-03-06T10:39:34;2.42;;;1.30;;
78368;SDS011;71113;43.092;-89.268;2024-03-06T10:42:06;2.28;;;1.00;;
78368;SDS011;71113;43.092;-89.268;2024-03-06T10:44:33;3.08;;;1.30;;
78368;SDS011;71113;43.092;-89.268;2024-03-06T10:47:02;2.80;;;1.20;;
78368;SDS011;71113;43.092;-89.268;2024-03-06T10:49:31;2.03;;;1.10;;
78368;SDS011;71113;43.092;-89.268;2024-03-06T10:52:00;2.40;;;1.17;;
78368;SDS011;71113;43.092;-89.268;2024-03-06T10:54:27;1.58;;;1.10;;
78368;SDS011;71113;43.092;-89.268;2024-03-06T10:56:55;1.90;;;1.00;;
78368;SDS011;71113;43.092;-89.268;2024-03-06T10:59:21;1.77;;;1.00;;
78368;SDS011;71113;43.092;-89.268;2024-03-06T11:01:53;2.63;;;1.23;;
78368;SDS011;71113;43.092;-89.268;2024-03-06T11:06:51;1.05;;;0.70;;
78368;SDS011;71113;43.092;-89.268;2024-03-06T11:09:17;0.85;;;0.50;;
78368;SDS011;71113;43.092;-89.268;2024-03-06T11:11:50;0.95;;;0.60;;
78368;SDS011;71113;43.092;-89.268;2024-03-06T11:14:17;1.83;;;0.85;;
78368;SDS011;71113;43.092;-89.268;2024-03-06T11:19:23;1.90;;;1.10;;
78368;SDS011;71113;43.092;-89.268;2024-03-06T11:21:49;1.83;;;1.00;;
78368;SDS011;71113;43.092;-89.268;2024-03-06T11:26:49;1.85;;;1.10;;
78368;SDS011;71113;43.092;-89.268;2024-03-06T11:29:16;1.02;;;0.63;;
78368;SDS011;71113;43.092;-89.268;2024-03-06T11:34:35;1.02;;;0.68;;
78368;SDS011;71113;43.092;-89.268;2024-03-06T11:37:03;2.22;;;0.90;;
78368;SDS011;71113;43.092;-89.268;2024-03-06T11:39:36;1.02;;;0.43;;
78368;SDS011;71113;43.092;-89.268;2024-03-06T11:42:04;0.60;;;0.60;;
78368;SDS011;71113;43.092;-89.268;2024-03-06T11:44:33;0.95;;;0.70;;
78368;SDS011;71113;43.092;-89.268;2024-03-06T11:47:03;0.93;;;0.63;;
78368;SDS011;71113;43.092;-89.268;2024-03-06T11:49:31;1.30;;;0.70;;
78368;SDS011;71113;43.092;-89.268;2024-03-06T11:52:05;1.25;;;0.70;;
78368;SDS011;71113;43.092;-89.268;2024-03-06T11:54:33;0.98;;;0.70;;
78368;SDS011;71113;43.092;-89.268;2024-03-06T11:57:00;1.58;;;0.90;;
78368;SDS011;71113;43.092;-89.268;2024-03-06T11:59:28;0.93;;;0.65;;
78368;SDS011;71113;43.092;-89.268;2024-03-06T12:02:04;0.98;;;0.70;;
78368;SDS011;71113;43.092;-89.268;2024-03-06T12:04:31;1.50;;;0.73;;
78368;SDS011;71113;43.092;-89.268;2024-03-06T12:07:04;0.63;;;0.50;;
78368;SDS011;71113;43.092;-89.268;2024-03-06T12:09:31;1.52;;;0.77;;
78368;SDS011;71113;43.092;-89.268;2024-03-06T12:12:06;1.33;;;0.75;;
78368;SDS011;71113;43.092;-89.268;2024-03-06T12:14:34;0.77;;;0.50;;
78368;SDS011;71113;43.092;-89.268;2024-03-06T12:17:01;1.67;;;0.60;;
78368;SDS011;71113;43.092;-89.268;2024-03-06T12:19:33;1.70;;;0.68;;
78368;SDS011;71113;43.092;-89.268;2024-03-06T12:22:01;0.77;;;0.60;;
78368;SDS011;71113;43.092;-89.268;2024-03-06T12:24:29;0.60;;;0.60;;
78368;SDS011;71113;43.092;-89.268;2024-03-06T12:27:02;2.35;;;0.82;;
78368;SDS011;71113;43.092;-89.268;2024-03-06T12:29:30;0.70;;;0.60;;
78368;SDS011;71113;43.092;-89.268;2024-03-06T12:32:02;1.52;;;0.73;;
78368;SDS011;71113;43.092;-89.268;2024-03-06T12:34:29;0.82;;;0.60;;
78368;SDS011;71113;43.092;-89.268;2024-03-06T12:36:56;2.05;;;0.75;;
78368;SDS011;71113;43.092;-89.268;2024-03-06T12:39:32;1.75;;;0.80;;
78368;SDS011;71113;43.092;-89.268;2024-03-06T12:41:59;1.85;;;0.70;;
78368;SDS011;71113;43.092;-89.268;2024-03-06T12:44:24;14.02;;;8.32;;
78368;SDS011;71113;43.092;-89.268;2024-03-06T12:46:50;177.93;;;89.15;;
78368;SDS011;71113;43.092;-89.268;2024-03-06T12:49:16;194.80;;;87.85;;
78368;SDS011;71113;43.092;-89.268;2024-03-06T12:51:43;185.30;;;81.53;;
78368;SDS011;71113;43.092;-89.268;2024-03-06T12:54:09;156.50;;;73.55;;
78368;SDS011;71113;43.092;-89.268;2024-03-06T12:56:35;157.20;;;74.28;;
78368;SDS011;71113;43.092;-89.268;2024-03-06T12:59:01;147.82;;;66.68;;
78368;SDS011;71113;43.092;-89.268;2024-03-06T13:01:27;143.27;;;65.75;;
78368;SDS011;71113;43.092;-89.268;2024-03-06T13:03:53;127.18;;;55.92;;
78368;SDS011;71113;43.092;-89.268;2024-03-06T13:06:20;125.55;;;57.90;;
78368;SDS011;71113;43.092;-89.268;2024-03-06T13:08:46;118.63;;;53.00;;
78368;SDS011;71113;43.092;-89.268;2024-03-06T13:11:13;104.95;;;49.45;;
78368;SDS011;71113;43.092;-89.268;2024-03-06T13:13:39;102.57;;;47.70;;
78368;SDS011;71113;43.092;-89.268;2024-03-06T13:16:05;103.60;;;46.75;;
78368;SDS011;71113;43.092;-89.268;2024-03-06T13:18:31;102.32;;;45.33;;
78368;SDS011;71113;43.092;-89.268;2024-03-06T13:20:57;96.72;;;44.67;;
78368;SDS011;71113;43.092;-89.268;2024-03-06T13:23:25;93.47;;;43.22;;
78368;SDS011;71113;43.092;-89.268;2024-03-06T13:25:51;98.88;;;44.17;;
78368;SDS011;71113;43.092;-89.268;2024-03-06T13:28:17;92.47;;;43.20;;
78368;SDS011;71113;43.092;-89.268;2024-03-06T13:30:45;90.60;;;43.35;;
78368;SDS011;71113;43.092;-89.268;2024-03-06T13:33:11;85.30;;;39.38;;
78368;SDS011;71113;43.092;-89.268;2024-03-06T13:35:37;75.57;;;34.72;;
78368;SDS011;71113;43.092;-89.268;2024-03-06T13:38:03;73.80;;;33.67;;
78368;SDS011;71113;43.092;-89.268;2024-03-06T13:40:29;70.45;;;32.35;;
78368;SDS011;71113;43.092;-89.268;2024-03-06T13:42:55;66.85;;;30.27;;
78368;SDS011;71113;43.092;-89.268;2024-03-06T13:45:21;69.93;;;32.25;;
78368;SDS011;71113;43.092;-89.268;2024-03-06T13:47:46;62.72;;;28.48;;
78368;SDS011;71113;43.092;-89.268;2024-03-06T13:50:14;66.80;;;29.98;;
78368;SDS011;71113;43.092;-89.268;2024-03-06T13:52:41;58.35;;;26.60;;
78368;SDS011;71113;43.092;-89.268;2024-03-06T13:55:07;54.83;;;24.63;;
78368;SDS011;71113;43.092;-89.268;2024-03-06T13:57:35;47.88;;;22.48;;
78368;SDS011;71113;43.092;-89.268;2024-03-06T14:02:32;43.05;;;20.45;;
78368;SDS011;71113;43.092;-89.268;2024-03-06T14:04:58;41.42;;;18.77;;
78368;SDS011;71113;43.092;-89.268;2024-03-06T14:07:26;35.80;;;17.30;;
78368;SDS011;71113;43.092;-89.268;2024-03-06T14:09:52;36.42;;;18.02;;
78368;SDS011;71113;43.092;-89.268;2024-03-06T14:12:18;36.15;;;17.48;;
78368;SDS011;71113;43.092;-89.268;2024-03-06T14:14:44;32.17;;;15.27;;
78368;SDS011;71113;43.092;-89.268;2024-03-06T14:17:11;30.95;;;14.90;;
78368;SDS011;71113;43.092;-89.268;2024-03-06T14:19:37;30.75;;;14.52;;
78368;SDS011;71113;43.092;-89.268;2024-03-06T14:22:05;29.85;;;14.07;;
78368;SDS011;71113;43.092;-89.268;2024-03-06T14:24:32;29.17;;;14.93;;
78368;SDS011;71113;43.092;-89.268;2024-03-06T14:26:58;42.75;;;16.33;;